createdAt,value
2022-12-20T00:01:29.051Z,4.90
2022-12-20T00:03:57.819Z,4.90
2022-12-20T00:06:25.107Z,4.90
2022-12-20T00:09:00.700Z,4.90
2022-12-20T00:11:28.269Z,4.90
2022-12-20T00:13:55.433Z,4.90
2022-12-20T00:16:24.592Z,4.90
2022-12-20T00:18:56.837Z,4.90
2022-12-20T00:21:24.561Z,4.90
2022-12-20T00:23:52.731Z,4.90
2022-12-20T00:26:22.623Z,4.90
2022-12-20T00:28:49.431Z,5.00
2022-12-20T00:31:18.970Z,5.00
2022-12-20T00:33:48.499Z,5.00
2022-12-20T00:36:16.307Z,5.00
2022-12-20T00:38:46.444Z,5.00
2022-12-20T00:41:15.907Z,4.90
2022-12-20T00:43:42.774Z,5.00
2022-12-20T00:46:11.410Z,5.00
2022-12-20T00:48:38.632Z,5.00
2022-12-20T00:51:09.184Z,5.00
2022-12-20T00:53:36.892Z,5.00
2022-12-20T00:56:05.234Z,5.00
2022-12-20T00:58:36.833Z,5.00
2022-12-20T01:01:04.632Z,4.90
2022-12-20T01:03:32.068Z,4.90
2022-12-20T01:06:01.601Z,4.90
2022-12-20T01:08:30.187Z,4.90
2022-12-20T01:11:08.627Z,4.90
2022-12-20T01:13:37.787Z,4.90
2022-12-20T01:16:10.236Z,4.90
2022-12-20T01:18:36.990Z,4.90
2022-12-20T01:21:10.115Z,4.90
2022-12-20T01:23:37.479Z,4.90
2022-12-20T01:26:06.002Z,4.90
2022-12-20T01:28:33.111Z,4.90
2022-12-20T01:31:00.192Z,4.90
2022-12-20T01:33:27.498Z,4.80
2022-12-20T01:35:59.592Z,4.80
2022-12-20T01:38:26.955Z,4.80
2022-12-20T01:40:54.871Z,4.80
2022-12-20T01:43:22.667Z,4.70
2022-12-20T01:45:49.657Z,4.70
2022-12-20T01:48:25.635Z,4.70
2022-12-20T01:50:53.223Z,4.70
2022-12-20T01:53:23.261Z,4.80
2022-12-20T01:55:50.100Z,4.80
2022-12-20T01:58:19.420Z,4.80
2022-12-20T02:00:47.030Z,4.80
2022-12-20T02:03:15.354Z,4.80
2022-12-20T02:05:47.703Z,4.70
2022-12-20T02:08:17.760Z,4.70
2022-12-20T02:10:44.541Z,4.80
2022-12-20T02:13:37.954Z,4.70
2022-12-20T02:16:05.118Z,4.70
2022-12-20T02:18:45.943Z,4.70
2022-12-20T02:21:29.864Z,4.70
2022-12-20T02:24:17.009Z,4.70
2022-12-20T02:26:55.482Z,4.70
2022-12-20T02:29:38.868Z,4.70
2022-12-20T02:32:12.970Z,4.70
2022-12-20T02:34:41.799Z,4.70
2022-12-20T02:37:09.621Z,4.70
2022-12-20T02:39:39.654Z,4.70
2022-12-20T02:42:10.526Z,4.80
2022-12-20T02:45:17.156Z,4.80
2022-12-20T02:47:58.656Z,4.80
2022-12-20T02:50:36.512Z,4.80
2022-12-20T02:53:04.577Z,4.80
2022-12-20T02:55:45.027Z,4.70
2022-12-20T02:58:37.673Z,4.70
2022-12-20T03:01:13.732Z,4.70
2022-12-20T03:03:41.105Z,4.60
2022-12-20T03:06:08.239Z,4.60
2022-12-20T03:08:35.760Z,4.70
2022-12-20T03:11:02.474Z,4.70
2022-12-20T03:13:29.304Z,4.70
2022-12-20T03:15:58.108Z,4.70
2022-12-20T03:18:24.839Z,4.70
2022-12-20T03:20:51.692Z,4.70
2022-12-20T03:23:18.351Z,4.80
2022-12-20T03:25:45.158Z,4.80
2022-12-20T03:28:11.953Z,4.80
2022-12-20T03:30:38.843Z,4.80
2022-12-20T03:33:05.541Z,4.80
2022-12-20T03:35:32.332Z,4.90
2022-12-20T03:37:59.621Z,4.90
2022-12-20T03:40:26.348Z,4.90
2022-12-20T03:42:53.071Z,4.90
2022-12-20T03:45:19.869Z,5.00
2022-12-20T03:47:46.530Z,5.00
2022-12-20T03:50:13.711Z,5.00
2022-12-20T03:52:40.406Z,5.00
2022-12-20T03:55:07.978Z,5.00
2022-12-20T03:57:34.636Z,5.00
2022-12-20T04:00:01.521Z,5.00
2022-12-20T04:02:29.638Z,5.00
2022-12-20T04:04:56.373Z,5.00
2022-12-20T04:07:23.062Z,5.00
2022-12-20T04:09:49.844Z,5.00
2022-12-20T04:12:16.546Z,5.00
2022-12-20T04:14:43.287Z,5.00
2022-12-20T04:17:10.091Z,5.10
2022-12-20T04:19:36.780Z,5.10
2022-12-20T04:22:05.916Z,5.10
2022-12-20T04:24:33.111Z,5.10
2022-12-20T04:26:59.783Z,5.10
2022-12-20T04:29:29.666Z,5.10
2022-12-20T04:31:56.465Z,5.20
2022-12-20T04:34:23.192Z,5.20
2022-12-20T04:36:49.834Z,5.20
2022-12-20T04:39:16.548Z,5.20
2022-12-20T04:41:43.371Z,5.20
2022-12-20T04:44:10.012Z,5.20
2022-12-20T04:46:36.917Z,5.20
2022-12-20T04:49:03.933Z,5.20
2022-12-20T04:51:30.757Z,5.20
2022-12-20T04:53:57.837Z,5.20
2022-12-20T04:56:28.184Z,5.20
2022-12-20T04:58:57.430Z,5.20
2022-12-20T05:01:24.372Z,5.20
2022-12-20T05:03:51.448Z,5.20
2022-12-20T05:06:18.739Z,5.20
2022-12-20T05:08:45.535Z,5.20
2022-12-20T05:11:12.770Z,5.20
2022-12-20T05:13:39.736Z,5.20
2022-12-20T05:16:06.871Z,5.20
2022-12-20T05:18:33.773Z,5.30
2022-12-20T05:21:20.592Z,5.30
2022-12-20T05:24:06.556Z,5.30
2022-12-20T05:26:38.083Z,5.30
2022-12-20T05:29:06.159Z,5.30
2022-12-20T05:31:33.679Z,5.30
2022-12-20T05:34:00.694Z,5.30
2022-12-20T05:36:27.691Z,5.30
2022-12-20T05:38:58.234Z,5.30
2022-12-20T05:41:30.413Z,5.30
2022-12-20T05:43:57.355Z,5.40
2022-12-20T05:46:24.211Z,5.40
2022-12-20T05:48:50.879Z,5.40
2022-12-20T05:51:17.628Z,5.40
2022-12-20T05:53:44.745Z,5.40
2022-12-20T05:56:11.446Z,5.40
2022-12-20T05:58:38.181Z,5.40
2022-12-20T06:01:06.584Z,5.40
2022-12-20T06:03:33.382Z,5.40
2022-12-20T06:06:00.186Z,5.40
2022-12-20T06:08:27.202Z,5.40
2022-12-20T06:10:53.999Z,5.40
2022-12-20T06:13:20.870Z,5.40
2022-12-20T06:15:47.978Z,5.40
2022-12-20T06:18:14.771Z,5.40
2022-12-20T06:20:41.528Z,5.40
2022-12-20T06:23:09.647Z,5.40
2022-12-20T06:25:38.196Z,5.40
2022-12-20T06:28:05.789Z,5.40
2022-12-20T06:30:34.261Z,5.40
2022-12-20T06:33:03.061Z,5.40
2022-12-20T06:35:30.429Z,5.40
2022-12-20T06:37:57.389Z,5.50
2022-12-20T06:40:24.559Z,5.50
2022-12-20T06:42:51.207Z,5.50
2022-12-20T06:45:18.004Z,5.50
2022-12-20T06:47:44.917Z,5.50
2022-12-20T06:50:11.832Z,5.50
2022-12-20T06:52:38.529Z,5.50
2022-12-20T06:55:05.428Z,5.50
2022-12-20T06:57:33.091Z,5.50
2022-12-20T06:59:59.781Z,5.50
2022-12-20T07:02:27.942Z,5.50
2022-12-20T07:04:55.501Z,5.50
2022-12-20T07:07:22.452Z,5.50
2022-12-20T07:09:49.394Z,5.50
2022-12-20T07:12:16.186Z,5.50
2022-12-20T07:14:42.900Z,5.60
2022-12-20T07:17:10.869Z,5.50
2022-12-20T07:19:37.702Z,5.60
2022-12-20T07:22:05.647Z,5.60
2022-12-20T07:24:33.105Z,5.50
2022-12-20T07:26:59.890Z,5.50
2022-12-20T07:29:26.830Z,5.50
2022-12-20T07:31:53.703Z,5.50
2022-12-20T07:34:20.916Z,5.50
2022-12-20T07:36:47.978Z,5.50
2022-12-20T07:39:14.831Z,5.50
2022-12-20T07:41:41.879Z,5.50
2022-12-20T07:44:08.610Z,5.50
2022-12-20T07:46:35.470Z,5.50
2022-12-20T07:49:02.292Z,5.50
2022-12-20T07:51:33.047Z,5.50
2022-12-20T07:54:09.721Z,5.50
2022-12-20T07:56:41.726Z,5.50
2022-12-20T07:59:11.540Z,5.50
2022-12-20T08:01:39.144Z,5.50
2022-12-20T08:04:12.882Z,5.60
2022-12-20T08:06:40.937Z,5.60
2022-12-20T08:09:09.222Z,5.60
2022-12-20T08:11:37.211Z,5.60
2022-12-20T08:14:06.780Z,5.70
2022-12-20T08:16:33.882Z,5.70
2022-12-20T08:19:01.085Z,5.70
2022-12-20T08:21:29.140Z,5.70
2022-12-20T08:23:56.731Z,5.80
2022-12-20T08:26:23.537Z,5.80
2022-12-20T08:28:50.263Z,5.80
2022-12-20T08:31:17.176Z,5.80
2022-12-20T08:33:46.933Z,5.90
2022-12-20T08:36:14.563Z,5.90
2022-12-20T08:38:41.668Z,5.90
2022-12-20T08:41:11.368Z,5.90
2022-12-20T08:43:39.121Z,6.00
2022-12-20T08:46:07.146Z,6.00
2022-12-20T08:48:34.220Z,6.00
2022-12-20T08:51:04.318Z,6.00
2022-12-20T08:53:31.739Z,6.00
2022-12-20T08:56:05.241Z,6.10
2022-12-20T08:58:32.141Z,6.10
2022-12-20T09:01:06.376Z,6.10
2022-12-20T09:03:34.979Z,6.10
2022-12-20T09:06:04.960Z,6.10
2022-12-20T09:08:31.732Z,6.10
2022-12-20T09:11:06.547Z,6.10
2022-12-20T09:13:39.517Z,6.10
2022-12-20T09:16:10.817Z,6.10
2022-12-20T09:18:37.704Z,6.10
2022-12-20T09:21:06.043Z,6.10
2022-12-20T09:23:34.992Z,6.10
2022-12-20T09:26:04.063Z,6.10
2022-12-20T09:28:31.923Z,6.10
2022-12-20T09:31:00.489Z,6.10
2022-12-20T09:33:28.789Z,6.20
2022-12-20T09:35:55.463Z,6.20
2022-12-20T09:38:22.463Z,6.30
2022-12-20T09:40:51.583Z,6.30
2022-12-20T09:43:19.094Z,6.40
2022-12-20T09:45:48.679Z,6.40
2022-12-20T09:48:20.105Z,6.50
2022-12-20T09:50:46.812Z,6.60
2022-12-20T09:53:22.621Z,6.60
2022-12-20T09:56:05.893Z,6.70
2022-12-20T09:58:46.442Z,6.80
2022-12-20T10:01:38.846Z,6.80
2022-12-20T10:04:21.951Z,6.90
2022-12-20T10:07:15.923Z,7.00
2022-12-20T10:09:57.661Z,7.00
2022-12-20T10:12:46.813Z,7.10
2022-12-20T10:15:37.990Z,7.20
2022-12-20T10:18:42.191Z,7.20
2022-12-20T10:21:12.061Z,7.20
2022-12-20T10:24:02.307Z,7.30
2022-12-20T10:26:30.319Z,7.30
2022-12-20T10:28:57.142Z,7.30
2022-12-20T10:31:25.257Z,7.30
2022-12-20T10:33:52.057Z,7.40
2022-12-20T10:36:33.561Z,7.40
2022-12-20T10:39:10.273Z,7.40
2022-12-20T10:41:40.067Z,7.50
2022-12-20T10:44:27.398Z,7.50
2022-12-20T10:46:59.697Z,7.50
2022-12-20T10:49:32.646Z,7.50
2022-12-20T10:52:12.061Z,7.50
2022-12-20T10:54:43.925Z,7.50
2022-12-20T10:57:22.830Z,7.60
2022-12-20T10:59:56.322Z,7.60
2022-12-20T11:02:39.521Z,7.60
2022-12-20T11:05:11.003Z,7.60
2022-12-20T11:08:32.998Z,7.60
2022-12-20T11:10:41.704Z,7.60
2022-12-20T11:13:25.628Z,7.60
2022-12-20T11:15:57.173Z,7.60
2022-12-20T11:18:39.770Z,7.60
2022-12-20T11:21:11.130Z,7.60
2022-12-20T11:23:48.475Z,7.60
2022-12-20T11:26:37.006Z,7.60
2022-12-20T11:29:26.663Z,7.60
2022-12-20T11:32:30.573Z,7.60
2022-12-20T11:35:15.164Z,7.70
2022-12-20T11:38:12.057Z,7.70
2022-12-20T11:40:48.423Z,7.70
2022-12-20T11:43:26.968Z,7.70
2022-12-20T11:46:49.113Z,7.70
2022-12-20T11:49:21.834Z,7.80
2022-12-20T11:51:52.724Z,7.70
2022-12-20T11:54:44.991Z,7.70
2022-12-20T11:57:23.315Z,7.70
2022-12-20T12:00:02.737Z,7.70
2022-12-20T12:02:44.110Z,7.70
2022-12-20T12:05:32.656Z,7.70
2022-12-20T12:08:07.222Z,7.70
2022-12-20T12:10:42.723Z,7.70
2022-12-20T12:13:23.593Z,7.70
2022-12-20T12:16:05.244Z,7.70
2022-12-20T12:18:34.276Z,7.80
2022-12-20T12:21:09.075Z,7.70
2022-12-20T12:23:57.949Z,7.70
2022-12-20T12:26:27.679Z,7.70
2022-12-20T12:29:00.473Z,7.70
2022-12-20T12:31:44.278Z,7.70
2022-12-20T12:34:36.041Z,7.80
2022-12-20T12:37:28.636Z,7.70
2022-12-20T12:40:16.454Z,7.80
2022-12-20T12:43:04.826Z,7.80
2022-12-20T12:45:44.960Z,7.80
2022-12-20T12:48:18.925Z,7.90
2022-12-20T12:50:52.862Z,7.90
2022-12-20T12:53:27.319Z,7.90
2022-12-20T12:56:12.919Z,7.90
2022-12-20T12:58:48.554Z,7.90
2022-12-20T13:01:50.832Z,8.00
2022-12-20T13:04:20.852Z,7.90
2022-12-20T13:06:47.546Z,7.90
2022-12-20T13:09:26.366Z,8.00
2022-12-20T13:12:00.985Z,8.00
2022-12-20T13:14:30.106Z,8.00
2022-12-20T13:17:12.274Z,8.10
2022-12-20T13:19:53.321Z,8.10
2022-12-20T13:22:23.273Z,8.10
2022-12-20T13:24:58.797Z,8.10
2022-12-20T13:27:39.194Z,8.10
2022-12-20T13:30:12.123Z,8.10
2022-12-20T13:32:47.993Z,8.20
2022-12-20T13:35:27.954Z,8.20
2022-12-20T13:38:09.472Z,8.10
2022-12-20T13:40:47.113Z,8.10
2022-12-20T13:43:28.093Z,8.10
2022-12-20T13:46:09.917Z,8.20
2022-12-20T13:48:46.754Z,8.20
2022-12-20T13:51:22.485Z,8.20
2022-12-20T13:53:54.758Z,8.20
2022-12-20T13:56:27.491Z,8.20
2022-12-20T13:58:56.231Z,8.20
2022-12-20T14:01:25.101Z,8.20
2022-12-20T14:03:53.538Z,8.20
2022-12-20T14:06:26.825Z,8.30
2022-12-20T14:08:54.228Z,8.30
2022-12-20T14:11:30.083Z,8.30
2022-12-20T14:13:59.941Z,8.40
2022-12-20T14:16:28.943Z,8.40
2022-12-20T14:19:05.412Z,8.30
2022-12-20T14:21:36.127Z,8.40
2022-12-20T14:24:03.658Z,8.40
2022-12-20T14:26:38.711Z,8.40
2022-12-20T14:29:12.434Z,8.40
2022-12-20T14:31:42.656Z,8.40
2022-12-20T14:34:10.453Z,8.40
2022-12-20T14:36:42.448Z,8.40
2022-12-20T14:39:28.995Z,8.40
2022-12-20T14:42:19.304Z,8.40
2022-12-20T14:44:47.251Z,8.40
2022-12-20T14:47:26.387Z,8.40
2022-12-20T14:50:00.192Z,8.40
2022-12-20T14:52:33.207Z,8.30
2022-12-20T14:55:08.195Z,8.30
2022-12-20T14:57:36.065Z,8.30
2022-12-20T15:00:14.943Z,8.20
2022-12-20T15:02:53.619Z,8.20
2022-12-20T15:05:36.217Z,8.20
2022-12-20T15:08:14.687Z,8.10
2022-12-20T15:10:53.976Z,8.10
2022-12-20T15:13:25.170Z,8.10
2022-12-20T15:15:51.935Z,8.10
2022-12-20T15:18:20.603Z,8.10
2022-12-20T15:21:02.447Z,8.10
2022-12-20T15:23:29.783Z,8.10
2022-12-20T15:25:56.581Z,8.10
2022-12-20T15:28:25.210Z,8.20
2022-12-20T15:30:53.663Z,8.20
2022-12-20T15:33:23.015Z,8.20
2022-12-20T15:35:49.870Z,8.20
2022-12-20T15:38:25.411Z,8.20
2022-12-20T15:41:05.295Z,8.20
2022-12-20T15:43:39.012Z,8.20
2022-12-20T15:46:06.067Z,8.20
2022-12-20T15:48:32.874Z,8.20
2022-12-20T15:50:59.944Z,8.20
2022-12-20T15:53:34.019Z,8.10
2022-12-20T15:56:01.043Z,8.10
2022-12-20T15:58:28.030Z,8.10
2022-12-20T16:00:58.655Z,8.10
2022-12-20T16:03:30.488Z,8.10
2022-12-20T16:05:58.036Z,8.10
2022-12-20T16:08:24.845Z,8.10
2022-12-20T16:10:52.474Z,8.10
2022-12-20T16:13:25.195Z,8.10
2022-12-20T16:15:52.741Z,8.10
2022-12-20T16:18:19.676Z,8.10
2022-12-20T16:20:46.438Z,8.10
2022-12-20T16:23:22.717Z,8.10
2022-12-20T16:25:50.843Z,8.10
2022-12-20T16:28:18.082Z,8.20
2022-12-20T16:30:50.921Z,8.20
2022-12-20T16:33:21.313Z,8.20
2022-12-20T16:35:48.459Z,8.20
2022-12-20T16:38:15.217Z,8.20
2022-12-20T16:40:42.139Z,8.10
2022-12-20T16:43:15.375Z,8.20
2022-12-20T16:45:42.233Z,8.10
2022-12-20T16:48:09.195Z,8.20
2022-12-20T16:50:41.522Z,8.20
2022-12-20T16:53:12.811Z,8.20
2022-12-20T16:55:40.322Z,8.20
2022-12-20T16:58:07.206Z,8.20
2022-12-20T17:00:34.050Z,8.20
2022-12-20T17:03:01.004Z,8.20
2022-12-20T17:05:30.982Z,8.20
2022-12-20T17:07:58.303Z,8.10
2022-12-20T17:10:27.043Z,8.10
2022-12-20T17:12:54.516Z,8.10
2022-12-20T17:15:27.735Z,8.20
2022-12-20T17:17:55.671Z,8.20
2022-12-20T17:20:24.875Z,8.20
2022-12-20T17:25:40.216Z,8.20
2022-12-20T17:28:06.964Z,8.20
2022-12-20T17:30:33.712Z,8.20
2022-12-20T17:33:00.561Z,8.30
2022-12-20T17:35:30.522Z,8.20
2022-12-20T17:37:58.069Z,8.30
2022-12-20T17:40:25.959Z,8.30
2022-12-20T17:42:54.375Z,8.30
2022-12-20T17:45:31.516Z,8.30
2022-12-20T17:47:58.895Z,8.30
2022-12-20T17:50:26.493Z,8.30
2022-12-20T17:52:54.680Z,8.30
2022-12-20T17:55:27.297Z,8.30
2022-12-20T17:57:55.321Z,8.30
2022-12-20T18:00:34.520Z,8.40
2022-12-20T18:03:03.473Z,8.40
2022-12-20T18:05:30.477Z,8.40
2022-12-20T18:07:57.221Z,8.40
2022-12-20T18:10:24.395Z,8.50
2022-12-20T18:12:51.505Z,8.50
2022-12-20T18:15:20.010Z,8.50
2022-12-20T18:17:46.923Z,8.60
2022-12-20T18:20:13.815Z,8.60
2022-12-20T18:22:40.767Z,8.60
2022-12-20T18:25:08.551Z,8.60
2022-12-20T18:27:40.554Z,8.60
2022-12-20T18:30:08.550Z,8.50
2022-12-20T18:32:35.561Z,8.60
2022-12-20T18:35:02.344Z,8.50
2022-12-20T18:37:29.526Z,8.50
2022-12-20T18:39:56.398Z,8.50
2022-12-20T18:42:23.314Z,8.50
2022-12-20T18:44:50.112Z,8.50
2022-12-20T18:47:16.912Z,8.50
2022-12-20T18:49:43.873Z,8.50
2022-12-20T18:52:10.740Z,8.50
2022-12-20T18:54:37.435Z,8.50
2022-12-20T18:57:06.507Z,8.50
2022-12-20T18:59:34.217Z,8.60
2022-12-20T19:02:01.683Z,8.60
2022-12-20T19:04:28.580Z,8.60
2022-12-20T19:06:56.510Z,8.60
2022-12-20T19:09:23.313Z,8.60
2022-12-20T19:11:56.194Z,8.60
2022-12-20T19:14:23.362Z,8.60
2022-12-20T19:16:51.771Z,8.60
2022-12-20T19:19:18.657Z,8.60
2022-12-20T19:21:45.418Z,8.60
2022-12-20T19:24:12.440Z,8.60
2022-12-20T19:26:39.757Z,8.60
2022-12-20T19:29:06.812Z,8.60
2022-12-20T19:31:36.676Z,8.70
2022-12-20T19:34:07.632Z,8.60
2022-12-20T19:36:43.811Z,8.70
2022-12-20T19:39:20.463Z,8.70
2022-12-20T19:42:15.513Z,8.70
2022-12-20T19:44:35.658Z,8.70
2022-12-20T19:47:06.027Z,8.70
2022-12-20T19:49:33.580Z,8.70
2022-12-20T19:52:00.591Z,8.70
2022-12-20T19:54:27.544Z,8.70
2022-12-20T19:56:54.617Z,8.70
2022-12-20T19:59:21.497Z,8.70
2022-12-20T20:01:48.455Z,8.70
2022-12-20T20:04:15.327Z,8.70
2022-12-20T20:06:42.659Z,8.60
2022-12-20T20:09:09.403Z,8.60
2022-12-20T20:11:36.461Z,8.60
2022-12-20T20:14:03.972Z,8.60
2022-12-20T20:16:30.892Z,8.60
2022-12-20T20:18:57.907Z,8.60
2022-12-20T20:21:24.822Z,8.60
2022-12-20T20:23:52.628Z,8.70
2022-12-20T20:26:22.273Z,8.60
2022-12-20T20:28:49.447Z,8.60
2022-12-20T20:31:18.584Z,8.60
2022-12-20T20:33:46.161Z,8.60
2022-12-20T20:36:15.498Z,8.60
2022-12-20T20:38:42.363Z,8.60
2022-12-20T20:41:09.964Z,8.60
2022-12-20T20:43:37.868Z,8.60
2022-12-20T20:46:06.541Z,8.60
2022-12-20T20:48:33.712Z,8.60
2022-12-20T20:51:00.856Z,8.60
2022-12-20T20:53:32.972Z,8.50
2022-12-20T20:56:01.342Z,8.50
2022-12-20T20:58:28.130Z,8.50
2022-12-20T21:01:00.154Z,8.50
2022-12-20T21:03:28.810Z,8.50
2022-12-20T21:08:43.191Z,8.50
2022-12-20T21:11:10.437Z,8.40
2022-12-20T21:13:37.419Z,8.40
2022-12-20T21:16:13.013Z,8.40
2022-12-20T21:18:40.021Z,8.40
2022-12-20T21:21:12.509Z,8.40
2022-12-20T21:23:43.503Z,8.40
2022-12-20T21:26:10.371Z,8.40
2022-12-20T21:28:37.105Z,8.40
2022-12-20T21:31:06.568Z,8.40
2022-12-20T21:33:33.372Z,8.30
2022-12-20T21:36:01.659Z,8.30
2022-12-20T21:38:28.502Z,8.30
2022-12-20T21:41:07.130Z,8.30
2022-12-20T21:43:33.993Z,8.30
2022-12-20T21:46:01.055Z,8.30
2022-12-20T21:48:29.589Z,8.30
2022-12-20T21:51:05.029Z,8.30
2022-12-20T21:53:33.158Z,8.30
2022-12-20T21:56:00.849Z,8.30
2022-12-20T21:58:29.759Z,8.30
2022-12-20T22:00:57.299Z,8.30
2022-12-20T22:03:25.409Z,8.20
2022-12-20T22:05:54.873Z,8.20
2022-12-20T22:08:22.975Z,8.20
2022-12-20T22:10:58.682Z,8.20
2022-12-20T22:13:25.454Z,8.20
2022-12-20T22:15:52.308Z,8.20
2022-12-20T22:18:19.325Z,8.20
2022-12-20T22:20:47.775Z,8.20
2022-12-20T22:23:14.498Z,8.10
2022-12-20T22:25:41.630Z,8.10
2022-12-20T22:28:08.767Z,8.10
2022-12-20T22:30:39.677Z,8.10
2022-12-20T22:33:06.355Z,8.20
2022-12-20T22:35:33.147Z,8.10
2022-12-20T22:37:59.950Z,8.10
2022-12-20T22:40:26.720Z,8.10
2022-12-20T22:42:53.537Z,8.10
2022-12-20T22:45:20.312Z,8.10
2022-12-20T22:47:47.097Z,8.10
2022-12-20T22:50:13.851Z,8.10
2022-12-20T22:52:40.625Z,8.10
2022-12-20T22:55:07.747Z,8.10
2022-12-20T22:57:35.588Z,8.10
2022-12-20T23:00:03.140Z,8.20
2022-12-20T23:02:30.199Z,8.20
2022-12-20T23:04:57.108Z,8.20
2022-12-20T23:07:23.863Z,8.20
2022-12-20T23:09:50.555Z,8.20
2022-12-20T23:12:35.727Z,8.20
2022-12-20T23:15:21.278Z,8.20
2022-12-20T23:17:48.084Z,8.20
2022-12-20T23:20:33.595Z,8.20
2022-12-20T23:23:00.375Z,8.20
2022-12-20T23:25:27.155Z,8.20
2022-12-20T23:27:53.889Z,8.20
2022-12-20T23:30:23.584Z,8.30
2022-12-20T23:32:50.457Z,8.30
2022-12-20T23:35:19.446Z,8.30
2022-12-20T23:37:46.989Z,8.30
2022-12-20T23:40:16.303Z,8.30
2022-12-20T23:42:43.498Z,8.30
2022-12-20T23:45:10.754Z,8.30
2022-12-20T23:47:37.487Z,8.30
2022-12-20T23:50:04.764Z,8.30
2022-12-20T23:52:31.435Z,8.30
2022-12-20T23:54:58.145Z,8.30
2022-12-20T23:57:24.882Z,8.30
2022-12-20T23:59:51.631Z,8.30
